sensor_id;sensor_type;location;lat;lon;timestamp;pressure;altitude;pressure_sealevel;temperature;humidity
68193;BME280;55012;47.562;18.414;2023-08-08T00:00:26;100858.28;;;12.10;100.00
68193;BME280;55012;47.562;18.414;2023-08-08T00:02:51;100863.38;;;12.12;100.00
68193;BME280;55012;47.562;18.414;2023-08-08T00:05:17;100851.72;;;12.11;100.00
68193;BME280;55012;47.562;18.414;2023-08-08T00:07:42;100859.06;;;12.11;100.00
68193;BME280;55012;47.562;18.414;2023-08-08T00:10:08;100855.88;;;12.08;100.00
68193;BME280;55012;47.562;18.414;2023-08-08T00:12:34;100859.38;;;12.09;100.00
68193;BME280;55012;47.562;18.414;2023-08-08T00:14:59;100869.25;;;12.05;100.00
68193;BME280;55012;47.562;18.414;2023-08-08T00:17:25;100874.53;;;12.01;100.00
68193;BME280;55012;47.562;18.414;2023-08-08T00:19:50;100879.44;;;11.99;100.00
68193;BME280;55012;47.562;18.414;2023-08-08T00:22:16;100885.19;;;11.98;100.00
68193;BME280;55012;47.562;18.414;2023-08-08T00:24:41;100904.00;;;11.94;100.00
68193;BME280;55012;47.562;18.414;2023-08-08T00:27:07;100905.44;;;11.92;100.00
68193;BME280;55012;47.562;18.414;2023-08-08T00:29:32;100918.00;;;11.88;100.00
68193;BME280;55012;47.562;18.414;2023-08-08T00:31:58;100908.59;;;11.85;100.00
68193;BME280;55012;47.562;18.414;2023-08-08T00:34:23;100917.03;;;11.84;100.00
68193;BME280;55012;47.562;18.414;2023-08-08T00:36:49;100923.25;;;11.84;100.00
68193;BME280;55012;47.562;18.414;2023-08-08T00:39:14;100934.13;;;11.84;100.00
68193;BME280;55012;47.562;18.414;2023-08-08T00:41:39;100938.75;;;11.84;100.00
68193;BME280;55012;47.562;18.414;2023-08-08T00:44:05;100941.13;;;11.85;100.00
68193;BME280;55012;47.562;18.414;2023-08-08T00:46:31;100955.50;;;11.86;100.00
68193;BME280;55012;47.562;18.414;2023-08-08T00:48:56;100963.63;;;11.86;100.00
68193;BME280;55012;47.562;18.414;2023-08-08T00:51:23;100963.16;;;11.84;100.00
68193;BME280;55012;47.562;18.414;2023-08-08T00:53:49;100973.47;;;11.81;100.00
68193;BME280;55012;47.562;18.414;2023-08-08T00:56:15;100974.88;;;11.79;100.00
68193;BME280;55012;47.562;18.414;2023-08-08T00:58:42;100971.69;;;11.77;100.00
68193;BME280;55012;47.562;18.414;2023-08-08T01:01:11;100989.06;;;11.76;100.00
68193;BME280;55012;47.562;18.414;2023-08-08T01:03:36;100996.41;;;11.75;100.00
68193;BME280;55012;47.562;18.414;2023-08-08T01:06:13;100996.69;;;11.74;100.00
68193;BME280;55012;47.562;18.414;2023-08-08T01:12:00;101025.53;;;11.70;100.00
68193;BME280;55012;47.562;18.414;2023-08-08T01:14:28;101022.34;;;11.68;100.00
68193;BME280;55012;47.562;18.414;2023-08-08T01:16:55;101024.25;;;11.67;100.00
68193;BME280;55012;47.562;18.414;2023-08-08T01:19:28;101030.75;;;11.66;100.00
68193;BME280;55012;47.562;18.414;2023-08-08T01:22:01;101032.19;;;11.64;100.00
68193;BME280;55012;47.562;18.414;2023-08-08T01:24:28;101027.38;;;11.61;100.00
68193;BME280;55012;47.562;18.414;2023-08-08T01:26:59;101038.53;;;11.59;100.00
68193;BME280;55012;47.562;18.414;2023-08-08T01:29:25;101045.03;;;11.58;100.00
68193;BME280;55012;47.562;18.414;2023-08-08T01:31:51;101044.56;;;11.56;100.00
68193;BME280;55012;47.562;18.414;2023-08-08T01:34:16;101051.72;;;11.52;100.00
68193;BME280;55012;47.562;18.414;2023-08-08T01:36:55;101049.59;;;11.49;100.00
68193;BME280;55012;47.562;18.414;2023-08-08T01:39:27;101051.34;;;11.45;100.00
68193;BME280;55012;47.562;18.414;2023-08-08T01:41:55;101060.38;;;11.40;100.00
68193;BME280;55012;47.562;18.414;2023-08-08T01:44:22;101066.91;;;11.39;100.00
68193;BME280;55012;47.562;18.414;2023-08-08T01:46:52;101067.22;;;11.38;100.00
68193;BME280;55012;47.562;18.414;2023-08-08T01:49:18;101077.25;;;11.37;100.00
68193;BME280;55012;47.562;18.414;2023-08-08T01:51:43;101072.31;;;11.39;100.00
68193;BME280;55012;47.562;18.414;2023-08-08T01:54:09;101092.41;;;11.38;100.00
68193;BME280;55012;47.562;18.414;2023-08-08T01:56:34;101105.94;;;11.38;100.00
68193;BME280;55012;47.562;18.414;2023-08-08T01:59:00;101091.41;;;11.34;100.00
68193;BME280;55012;47.562;18.414;2023-08-08T02:01:25;101094.41;;;11.33;100.00
68193;BME280;55012;47.562;18.414;2023-08-08T02:03:51;101107.16;;;11.32;100.00
68193;BME280;55012;47.562;18.414;2023-08-08T02:06:16;101108.56;;;11.30;100.00
68193;BME280;55012;47.562;18.414;2023-08-08T02:08:42;101114.09;;;11.24;100.00
68193;BME280;55012;47.562;18.414;2023-08-08T02:11:07;101120.91;;;11.22;100.00
68193;BME280;55012;47.562;18.414;2023-08-08T02:13:32;101122.81;;;11.21;100.00
68193;BME280;55012;47.562;18.414;2023-08-08T02:15:58;101140.50;;;11.19;100.00
68193;BME280;55012;47.562;18.414;2023-08-08T02:18:23;101152.13;;;11.19;100.00
68193;BME280;55012;47.562;18.414;2023-08-08T02:20:49;101139.09;;;11.21;100.00
68193;BME280;55012;47.562;18.414;2023-08-08T02:23:14;101136.88;;;11.23;100.00
68193;BME280;55012;47.562;18.414;2023-08-08T02:25:40;101129.03;;;11.22;100.00
68193;BME280;55012;47.562;18.414;2023-08-08T02:28:05;101127.44;;;11.21;100.00
68193;BME280;55012;47.562;18.414;2023-08-08T02:30:31;101139.69;;;11.18;100.00
68193;BME280;55012;47.562;18.414;2023-08-08T02:32:56;101133.75;;;11.16;100.00
68193;BME280;55012;47.562;18.414;2023-08-08T02:35:22;101132.28;;;11.10;100.00
68193;BME280;55012;47.562;18.414;2023-08-08T02:37:47;101126.94;;;11.05;100.00
68193;BME280;55012;47.562;18.414;2023-08-08T02:40:13;101138.97;;;10.99;100.00
68193;BME280;55012;47.562;18.414;2023-08-08T02:42:38;101146.91;;;10.95;100.00
68193;BME280;55012;47.562;18.414;2023-08-08T02:45:04;101158.63;;;10.91;100.00
68193;BME280;55012;47.562;18.414;2023-08-08T02:47:29;101162.75;;;10.88;100.00
68193;BME280;55012;47.562;18.414;2023-08-08T02:49:55;101175.56;;;10.83;100.00
68193;BME280;55012;47.562;18.414;2023-08-08T02:52:20;101177.78;;;10.81;100.00
68193;BME280;55012;47.562;18.414;2023-08-08T02:54:46;101190.81;;;10.79;100.00
68193;BME280;55012;47.562;18.414;2023-08-08T02:57:11;101199.81;;;10.74;100.00
68193;BME280;55012;47.562;18.414;2023-08-08T02:59:37;101219.38;;;10.71;100.00
68193;BME280;55012;47.562;18.414;2023-08-08T03:02:03;101224.59;;;10.67;100.00
68193;BME280;55012;47.562;18.414;2023-08-08T03:04:29;101238.69;;;10.64;100.00
68193;BME280;55012;47.562;18.414;2023-08-08T03:06:54;101243.09;;;10.60;100.00
68193;BME280;55012;47.562;18.414;2023-08-08T03:09:20;101259.41;;;10.55;100.00
68193;BME280;55012;47.562;18.414;2023-08-08T03:11:45;101266.94;;;10.58;100.00
68193;BME280;55012;47.562;18.414;2023-08-08T03:14:11;101285.88;;;10.58;100.00
68193;BME280;55012;47.562;18.414;2023-08-08T03:16:36;101286.69;;;10.59;100.00
68193;BME280;55012;47.562;18.414;2023-08-08T03:19:02;101296.72;;;10.58;100.00
68193;BME280;55012;47.562;18.414;2023-08-08T03:21:27;101302.91;;;10.59;100.00
68193;BME280;55012;47.562;18.414;2023-08-08T03:23:53;101311.28;;;10.62;100.00
68193;BME280;55012;47.562;18.414;2023-08-08T03:26:19;101310.19;;;10.63;100.00
68193;BME280;55012;47.562;18.414;2023-08-08T03:28:44;101318.28;;;10.63;100.00
68193;BME280;55012;47.562;18.414;2023-08-08T03:31:10;101316.69;;;10.62;100.00
68193;BME280;55012;47.562;18.414;2023-08-08T03:33:35;101307.78;;;10.62;100.00
68193;BME280;55012;47.562;18.414;2023-08-08T03:36:01;101307.78;;;10.62;100.00
68193;BME280;55012;47.562;18.414;2023-08-08T03:38:26;101311.03;;;10.59;100.00
68193;BME280;55012;47.562;18.414;2023-08-08T03:40:51;101304.31;;;10.56;100.00
68193;BME280;55012;47.562;18.414;2023-08-08T03:43:17;101306.81;;;10.53;100.00
68193;BME280;55012;47.562;18.414;2023-08-08T03:45:44;101313.59;;;10.50;100.00
68193;BME280;55012;47.562;18.414;2023-08-08T03:48:09;101314.72;;;10.49;100.00
68193;BME280;55012;47.562;18.414;2023-08-08T03:50:35;101314.22;;;10.47;100.00
68193;BME280;55012;47.562;18.414;2023-08-08T03:53:00;101323.44;;;10.46;100.00
68193;BME280;55012;47.562;18.414;2023-08-08T03:55:26;101318.00;;;10.46;100.00
68193;BME280;55012;47.562;18.414;2023-08-08T03:57:51;101312.41;;;10.43;100.00
68193;BME280;55012;47.562;18.414;2023-08-08T04:00:16;101319.47;;;10.38;100.00
68193;BME280;55012;47.562;18.414;2023-08-08T04:02:42;101323.88;;;10.34;100.00
68193;BME280;55012;47.562;18.414;2023-08-08T04:05:08;101322.53;;;10.32;100.00
68193;BME280;55012;47.562;18.414;2023-08-08T04:07:34;101339.06;;;10.30;100.00
68193;BME280;55012;47.562;18.414;2023-08-08T04:09:59;101343.97;;;10.28;100.00
68193;BME280;55012;47.562;18.414;2023-08-08T04:12:25;101350.69;;;10.31;100.00
68193;BME280;55012;47.562;18.414;2023-08-08T04:14:50;101359.56;;;10.36;100.00
68193;BME280;55012;47.562;18.414;2023-08-08T04:17:15;101360.56;;;10.40;100.00
68193;BME280;55012;47.562;18.414;2023-08-08T04:19:41;101358.41;;;10.43;100.00
68193;BME280;55012;47.562;18.414;2023-08-08T04:22:07;101369.22;;;10.43;100.00
68193;BME280;55012;47.562;18.414;2023-08-08T04:24:33;101366.78;;;10.41;100.00
68193;BME280;55012;47.562;18.414;2023-08-08T04:26:58;101367.06;;;10.39;100.00
68193;BME280;55012;47.562;18.414;2023-08-08T04:29:24;101371.09;;;10.42;100.00
68193;BME280;55012;47.562;18.414;2023-08-08T04:31:49;101374.03;;;10.46;100.00
68193;BME280;55012;47.562;18.414;2023-08-08T04:34:15;101380.75;;;10.48;100.00
68193;BME280;55012;47.562;18.414;2023-08-08T04:36:40;101388.81;;;10.53;100.00
68193;BME280;55012;47.562;18.414;2023-08-08T04:39:05;101397.66;;;10.59;100.00
68193;BME280;55012;47.562;18.414;2023-08-08T04:41:31;101392.47;;;10.62;100.00
68193;BME280;55012;47.562;18.414;2023-08-08T04:43:56;101395.63;;;10.69;100.00
68193;BME280;55012;47.562;18.414;2023-08-08T04:46:22;101392.03;;;10.74;100.00
68193;BME280;55012;47.562;18.414;2023-08-08T04:48:47;101395.47;;;10.80;100.00
68193;BME280;55012;47.562;18.414;2023-08-08T04:51:13;101390.00;;;10.85;100.00
68193;BME280;55012;47.562;18.414;2023-08-08T04:53:38;101387.50;;;10.88;100.00
68193;BME280;55012;47.562;18.414;2023-08-08T04:56:04;101395.75;;;10.97;100.00
68193;BME280;55012;47.562;18.414;2023-08-08T04:58:29;101400.00;;;11.03;100.00
68193;BME280;55012;47.562;18.414;2023-08-08T05:00:55;101403.41;;;11.09;100.00
68193;BME280;55012;47.562;18.414;2023-08-08T05:03:20;101398.72;;;11.14;100.00
68193;BME280;55012;47.562;18.414;2023-08-08T05:05:46;101398.34;;;11.21;100.00
68193;BME280;55012;47.562;18.414;2023-08-08T05:08:15;101397.69;;;11.29;100.00
68193;BME280;55012;47.562;18.414;2023-08-08T05:10:40;101395.41;;;11.36;100.00
68193;BME280;55012;47.562;18.414;2023-08-08T05:13:06;101392.59;;;11.41;100.00
68193;BME280;55012;47.562;18.414;2023-08-08T05:15:31;101381.34;;;11.48;100.00
68193;BME280;55012;47.562;18.414;2023-08-08T05:17:57;101345.03;;;11.49;100.00
68193;BME280;55012;47.562;18.414;2023-08-08T05:20:23;101315.44;;;11.52;100.00
68193;BME280;55012;47.562;18.414;2023-08-08T05:22:48;101279.00;;;11.59;100.00
68193;BME280;55012;47.562;18.414;2023-08-08T05:25:14;101248.88;;;11.60;100.00
68193;BME280;55012;47.562;18.414;2023-08-08T05:27:39;101199.66;;;11.67;100.00
68193;BME280;55012;47.562;18.414;2023-08-08T05:30:05;101156.84;;;11.77;100.00
68193;BME280;55012;47.562;18.414;2023-08-08T05:32:31;101127.94;;;11.87;100.00
68193;BME280;55012;47.562;18.414;2023-08-08T05:34:57;101085.22;;;11.92;100.00
68193;BME280;55012;47.562;18.414;2023-08-08T05:37:26;101050.81;;;12.01;100.00
68193;BME280;55012;47.562;18.414;2023-08-08T05:39:51;101041.94;;;12.09;100.00
68193;BME280;55012;47.562;18.414;2023-08-08T05:42:17;101003.19;;;12.18;100.00
68193;BME280;55012;47.562;18.414;2023-08-08T05:44:43;100990.47;;;12.27;100.00
68193;BME280;55012;47.562;18.414;2023-08-08T05:47:08;100983.97;;;12.36;100.00
68193;BME280;55012;47.562;18.414;2023-08-08T05:49:34;100973.00;;;12.50;100.00
68193;BME280;55012;47.562;18.414;2023-08-08T05:51:59;100960.25;;;12.59;100.00
68193;BME280;55012;47.562;18.414;2023-08-08T05:54:25;100949.41;;;12.68;100.00
68193;BME280;55012;47.562;18.414;2023-08-08T05:56:50;100930.22;;;12.73;100.00
68193;BME280;55012;47.562;18.414;2023-08-08T05:59:16;100895.25;;;12.80;100.00
68193;BME280;55012;47.562;18.414;2023-08-08T06:01:41;100879.47;;;12.91;100.00
68193;BME280;55012;47.562;18.414;2023-08-08T06:04:07;100876.22;;;13.06;100.00
68193;BME280;55012;47.562;18.414;2023-08-08T06:06:33;100861.53;;;13.16;100.00
68193;BME280;55012;47.562;18.414;2023-08-08T06:08:58;100837.53;;;13.18;100.00
68193;BME280;55012;47.562;18.414;2023-08-08T06:11:23;100835.16;;;13.25;100.00
68193;BME280;55012;47.562;18.414;2023-08-08T06:13:49;100831.31;;;13.26;100.00
68193;BME280;55012;47.562;18.414;2023-08-08T06:16:14;100827.00;;;13.34;100.00
68193;BME280;55012;47.562;18.414;2023-08-08T06:18:41;100831.56;;;13.51;100.00
68193;BME280;55012;47.562;18.414;2023-08-08T06:21:06;100826.69;;;13.65;100.00
68193;BME280;55012;47.562;18.414;2023-08-08T06:23:32;100807.50;;;13.70;100.00
68193;BME280;55012;47.562;18.414;2023-08-08T06:25:57;100801.03;;;13.83;100.00
68193;BME280;55012;47.562;18.414;2023-08-08T06:28:23;100788.63;;;13.94;100.00
68193;BME280;55012;47.562;18.414;2023-08-08T06:30:48;100788.41;;;14.08;100.00
68193;BME280;55012;47.562;18.414;2023-08-08T06:33:14;100785.91;;;14.24;100.00
68193;BME280;55012;47.562;18.414;2023-08-08T06:35:39;100798.78;;;14.36;100.00
68193;BME280;55012;47.562;18.414;2023-08-08T06:38:05;100775.34;;;14.43;100.00
68193;BME280;55012;47.562;18.414;2023-08-08T06:40:30;100762.34;;;14.49;100.00
68193;BME280;55012;47.562;18.414;2023-08-08T06:42:56;100762.47;;;14.52;100.00
68193;BME280;55012;47.562;18.414;2023-08-08T06:45:21;100763.00;;;14.67;100.00
68193;BME280;55012;47.562;18.414;2023-08-08T06:47:47;100760.19;;;14.75;100.00
68193;BME280;55012;47.562;18.414;2023-08-08T06:50:12;100753.97;;;14.87;100.00
68193;BME280;55012;47.562;18.414;2023-08-08T06:52:38;100761.16;;;15.04;100.00
68193;BME280;55012;47.562;18.414;2023-08-08T06:55:04;100740.03;;;15.01;100.00
68193;BME280;55012;47.562;18.414;2023-08-08T06:57:32;100716.41;;;14.93;100.00
68193;BME280;55012;47.562;18.414;2023-08-08T06:59:58;100709.22;;;14.88;100.00
68193;BME280;55012;47.562;18.414;2023-08-08T07:02:23;100705.84;;;15.03;100.00
68193;BME280;55012;47.562;18.414;2023-08-08T07:04:49;100702.91;;;15.21;100.00
68193;BME280;55012;47.562;18.414;2023-08-08T07:07:14;100696.00;;;15.23;100.00
68193;BME280;55012;47.562;18.414;2023-08-08T07:09:40;100678.50;;;15.24;100.00
68193;BME280;55012;47.562;18.414;2023-08-08T07:12:06;100673.50;;;15.38;100.00
68193;BME280;55012;47.562;18.414;2023-08-08T07:14:32;100667.84;;;15.31;100.00
68193;BME280;55012;47.562;18.414;2023-08-08T07:16:57;100668.94;;;15.30;100.00
68193;BME280;55012;47.562;18.414;2023-08-08T07:19:23;100669.75;;;15.43;100.00
68193;BME280;55012;47.562;18.414;2023-08-08T07:21:49;100691.53;;;15.55;100.00
68193;BME280;55012;47.562;18.414;2023-08-08T07:24:16;100672.00;;;15.53;100.00
68193;BME280;55012;47.562;18.414;2023-08-08T07:26:41;100665.41;;;15.54;100.00
68193;BME280;55012;47.562;18.414;2023-08-08T07:29:07;100661.78;;;15.62;100.00
68193;BME280;55012;47.562;18.414;2023-08-08T07:31:33;100650.88;;;15.62;100.00
68193;BME280;55012;47.562;18.414;2023-08-08T07:33:58;100642.38;;;15.64;100.00
68193;BME280;55012;47.562;18.414;2023-08-08T07:36:24;100650.31;;;15.69;100.00
68193;BME280;55012;47.562;18.414;2023-08-08T07:38:49;100649.59;;;15.84;100.00
68193;BME280;55012;47.562;18.414;2023-08-08T07:41:15;100658.72;;;16.04;100.00
68193;BME280;55012;47.562;18.414;2023-08-08T07:43:40;100660.72;;;16.19;100.00
68193;BME280;55012;47.562;18.414;2023-08-08T07:46:06;100631.75;;;16.15;100.00
68193;BME280;55012;47.562;18.414;2023-08-08T07:48:32;100609.34;;;16.09;100.00
68193;BME280;55012;47.562;18.414;2023-08-08T07:50:58;100602.16;;;16.17;100.00
68193;BME280;55012;47.562;18.414;2023-08-08T07:53:23;100610.28;;;16.29;100.00
68193;BME280;55012;47.562;18.414;2023-08-08T07:55:48;100597.41;;;16.29;100.00
68193;BME280;55012;47.562;18.414;2023-08-08T07:58:14;100597.25;;;16.22;100.00
68193;BME280;55012;47.562;18.414;2023-08-08T08:00:39;100584.97;;;16.16;100.00
68193;BME280;55012;47.562;18.414;2023-08-08T08:03:06;100592.53;;;16.07;100.00
68193;BME280;55012;47.562;18.414;2023-08-08T08:05:31;100591.47;;;16.12;100.00
68193;BME280;55012;47.562;18.414;2023-08-08T08:07:57;100595.47;;;16.14;100.00
68193;BME280;55012;47.562;18.414;2023-08-08T08:10:23;100594.59;;;16.26;100.00
68193;BME280;55012;47.562;18.414;2023-08-08T08:12:48;100595.06;;;16.44;100.00
68193;BME280;55012;47.562;18.414;2023-08-08T08:15:13;100587.16;;;16.70;100.00
68193;BME280;55012;47.562;18.414;2023-08-08T08:17:39;100582.22;;;16.92;100.00
68193;BME280;55012;47.562;18.414;2023-08-08T08:20:05;100568.59;;;17.11;100.00
68193;BME280;55012;47.562;18.414;2023-08-08T08:22:36;100561.44;;;17.22;100.00
68193;BME280;55012;47.562;18.414;2023-08-08T08:25:01;100538.16;;;17.12;100.00
68193;BME280;55012;47.562;18.414;2023-08-08T08:27:27;100495.13;;;16.90;100.00
68193;BME280;55012;47.562;18.414;2023-08-08T08:29:52;100514.94;;;16.87;100.00
68193;BME280;55012;47.562;18.414;2023-08-08T08:32:18;100502.44;;;16.70;100.00
68193;BME280;55012;47.562;18.414;2023-08-08T08:34:43;100505.88;;;16.67;100.00
68193;BME280;55012;47.562;18.414;2023-08-08T08:37:09;100516.47;;;16.84;100.00
68193;BME280;55012;47.562;18.414;2023-08-08T08:39:35;100524.19;;;16.98;100.00
68193;BME280;55012;47.562;18.414;2023-08-08T08:42:02;100499.00;;;16.89;100.00
68193;BME280;55012;47.562;18.414;2023-08-08T08:44:31;100507.69;;;16.95;100.00
68193;BME280;55012;47.562;18.414;2023-08-08T08:47:03;100479.53;;;16.75;100.00
68193;BME280;55012;47.562;18.414;2023-08-08T08:49:32;100468.41;;;16.68;100.00
68193;BME280;55012;47.562;18.414;2023-08-08T08:52:00;100472.66;;;16.65;100.00
68193;BME280;55012;47.562;18.414;2023-08-08T08:54:27;100488.84;;;16.90;100.00
68193;BME280;55012;47.562;18.414;2023-08-08T08:56:55;100482.34;;;17.13;100.00
68193;BME280;55012;47.562;18.414;2023-08-08T08:59:20;100480.13;;;17.38;100.00
68193;BME280;55012;47.562;18.414;2023-08-08T09:01:46;100462.53;;;17.59;100.00
68193;BME280;55012;47.562;18.414;2023-08-08T09:04:12;100446.09;;;17.78;100.00
68193;BME280;55012;47.562;18.414;2023-08-08T09:06:41;100427.53;;;17.87;100.00
68193;BME280;55012;47.562;18.414;2023-08-08T09:09:07;100442.66;;;18.04;100.00
68193;BME280;55012;47.562;18.414;2023-08-08T09:11:32;100388.19;;;18.22;100.00
68193;BME280;55012;47.562;18.414;2023-08-08T09:13:58;100380.13;;;18.33;100.00
68193;BME280;55012;47.562;18.414;2023-08-08T09:16:25;100358.50;;;18.54;100.00
68193;BME280;55012;47.562;18.414;2023-08-08T09:18:51;100324.56;;;18.62;100.00
68193;BME280;55012;47.562;18.414;2023-08-08T09:21:18;100355.66;;;18.73;100.00
68193;BME280;55012;47.562;18.414;2023-08-08T09:23:43;100374.56;;;18.56;100.00
68193;BME280;55012;47.562;18.414;2023-08-08T09:26:09;100429.00;;;18.57;100.00
68193;BME280;55012;47.562;18.414;2023-08-08T09:28:35;100472.84;;;18.31;100.00
68193;BME280;55012;47.562;18.414;2023-08-08T09:31:01;100501.97;;;18.19;100.00
68193;BME280;55012;47.562;18.414;2023-08-08T09:33:29;100533.81;;;18.28;100.00
68193;BME280;55012;47.562;18.414;2023-08-08T09:35:55;100651.66;;;18.50;100.00
68193;BME280;55012;47.562;18.414;2023-08-08T09:38:21;100664.34;;;18.59;100.00
68193;BME280;55012;47.562;18.414;2023-08-08T09:40:46;100672.50;;;18.55;100.00
68193;BME280;55012;47.562;18.414;2023-08-08T09:43:12;100648.63;;;18.56;100.00
68193;BME280;55012;47.562;18.414;2023-08-08T09:45:40;100668.44;;;18.68;100.00
68193;BME280;55012;47.562;18.414;2023-08-08T09:48:09;100663.63;;;18.85;100.00
68193;BME280;55012;47.562;18.414;2023-08-08T09:50:35;100666.00;;;18.86;100.00
68193;BME280;55012;47.562;18.414;2023-08-08T09:53:04;100667.16;;;18.85;100.00
68193;BME280;55012;47.562;18.414;2023-08-08T09:55:30;100653.91;;;18.87;100.00
68193;BME280;55012;47.562;18.414;2023-08-08T09:57:57;100620.94;;;18.84;100.00
68193;BME280;55012;47.562;18.414;2023-08-08T10:00:24;100610.75;;;18.84;100.00
68193;BME280;55012;47.562;18.414;2023-08-08T10:02:53;100620.88;;;18.80;100.00
68193;BME280;55012;47.562;18.414;2023-08-08T10:05:19;100617.03;;;18.85;100.00
68193;BME280;55012;47.562;18.414;2023-08-08T10:07:45;100642.44;;;18.82;100.00
68193;BME280;55012;47.562;18.414;2023-08-08T10:10:11;100652.78;;;18.92;100.00
68193;BME280;55012;47.562;18.414;2023-08-08T10:12:39;100658.69;;;18.94;100.00
68193;BME280;55012;47.562;18.414;2023-08-08T10:15:09;100661.53;;;18.97;100.00
68193;BME280;55012;47.562;18.414;2023-08-08T10:17:39;100654.38;;;18.93;100.00
68193;BME280;55012;47.562;18.414;2023-08-08T10:20:07;100674.00;;;18.72;100.00
68193;BME280;55012;47.562;18.414;2023-08-08T10:22:35;100670.38;;;18.87;100.00
68193;BME280;55012;47.562;18.414;2023-08-08T10:25:03;100666.88;;;18.90;100.00
68193;BME280;55012;47.562;18.414;2023-08-08T10:27:36;100647.03;;;18.74;100.00
68193;BME280;55012;47.562;18.414;2023-08-08T10:30:07;100632.03;;;18.68;100.00
68193;BME280;55012;47.562;18.414;2023-08-08T10:32:45;100630.84;;;18.69;100.00
68193;BME280;55012;47.562;18.414;2023-08-08T10:35:15;100619.84;;;18.65;100.00
68193;BME280;55012;47.562;18.414;2023-08-08T10:37:52;100629.81;;;18.54;100.00
68193;BME280;55012;47.562;18.414;2023-08-08T10:40:18;100640.41;;;18.56;100.00
68193;BME280;55012;47.562;18.414;2023-08-08T10:42:46;100633.81;;;18.60;100.00
68193;BME280;55012;47.562;18.414;2023-08-08T10:45:13;100637.91;;;18.70;100.00
68193;BME280;55012;47.562;18.414;2023-08-08T10:47:39;100623.56;;;18.76;100.00
68193;BME280;55012;47.562;18.414;2023-08-08T10:50:10;100639.63;;;19.01;100.00
68193;BME280;55012;47.562;18.414;2023-08-08T10:58:09;99629.69;;;19.29;100.00
68193;BME280;55012;47.562;18.414;2023-08-08T11:00:36;99633.19;;;19.40;100.00
68193;BME280;55012;47.562;18.414;2023-08-08T11:03:05;99656.72;;;19.34;100.00
68193;BME280;55012;47.562;18.414;2023-08-08T11:05:32;99629.69;;;19.22;100.00
68193;BME280;55012;47.562;18.414;2023-08-08T11:07:59;99640.28;;;19.16;100.00
68193;BME280;55012;47.562;18.414;2023-08-08T11:10:25;99632.81;;;19.09;100.00
68193;BME280;55012;47.562;18.414;2023-08-08T11:13:00;99636.75;;;19.01;100.00
68193;BME280;55012;47.562;18.414;2023-08-08T11:15:26;99647.34;;;18.99;100.00
68193;BME280;55012;47.562;18.414;2023-08-08T11:17:54;99644.59;;;19.06;100.00
68193;BME280;55012;47.562;18.414;2023-08-08T11:20:21;99649.28;;;19.27;100.00
68193;BME280;55012;47.562;18.414;2023-08-08T11:22:54;99643.38;;;19.50;100.00
68193;BME280;55012;47.562;18.414;2023-08-08T11:25:21;99651.63;;;19.64;100.00
68193;BME280;55012;47.562;18.414;2023-08-08T11:27:53;99650.81;;;19.60;100.00
68193;BME280;55012;47.562;18.414;2023-08-08T11:30:19;99653.97;;;19.45;100.00
68193;BME280;55012;47.562;18.414;2023-08-08T11:32:49;99650.06;;;19.24;100.00
68193;BME280;55012;47.562;18.414;2023-08-08T11:35:22;99669.66;;;19.16;100.00
68193;BME280;55012;47.562;18.414;2023-08-08T11:37:48;99682.19;;;18.99;100.00
68193;BME280;55012;47.562;18.414;2023-08-08T11:40:15;99664.19;;;18.98;100.00
68193;BME280;55012;47.562;18.414;2023-08-08T11:42:41;99681.03;;;19.03;100.00
68193;BME280;55012;47.562;18.414;2023-08-08T11:45:13;99656.72;;;19.09;100.00
68193;BME280;55012;47.562;18.414;2023-08-08T11:47:39;99651.22;;;19.27;100.00
68193;BME280;55012;47.562;18.414;2023-08-08T11:50:07;99670.44;;;19.41;100.00
68193;BME280;55012;47.562;18.414;2023-08-08T11:52:38;99671.59;;;19.47;100.00
68193;BME280;55012;47.562;18.414;2023-08-08T11:55:05;99691.22;;;19.63;100.00
68193;BME280;55012;47.562;18.414;2023-08-08T11:57:31;99690.41;;;19.74;100.00
68193;BME280;55012;47.562;18.414;2023-08-08T11:59:57;99682.03;;;20.16;100.00
68193;BME280;55012;47.562;18.414;2023-08-08T12:02:23;99685.53;;;20.24;100.00
68193;BME280;55012;47.562;18.414;2023-08-08T12:04:49;99666.63;;;20.40;100.00
68193;BME280;55012;47.562;18.414;2023-08-08T12:07:14;99693.72;;;20.35;100.00
68193;BME280;55012;47.562;18.414;2023-08-08T12:09:42;99670.63;;;20.29;100.00
68193;BME280;55012;47.562;18.414;2023-08-08T12:12:08;99694.59;;;20.17;100.00
68193;BME280;55012;47.562;18.414;2023-08-08T12:14:38;99701.75;;;19.83;100.00
68193;BME280;55012;47.562;18.414;2023-08-08T12:17:04;99685.31;;;19.54;100.00
68193;BME280;55012;47.562;18.414;2023-08-08T12:19:29;99674.72;;;18.85;100.00
68193;BME280;55012;47.562;18.414;2023-08-08T12:21:55;99569.47;;;17.67;100.00
68193;BME280;55012;47.562;18.414;2023-08-08T12:24:21;99465.25;;;17.03;100.00
68193;BME280;55012;47.562;18.414;2023-08-08T12:26:46;99404.19;;;16.74;100.00
68193;BME280;55012;47.562;18.414;2023-08-08T12:29:12;99394.44;;;16.73;100.00
68193;BME280;55012;47.562;18.414;2023-08-08T12:31:38;99419.47;;;16.82;100.00
68193;BME280;55012;47.562;18.414;2023-08-08T12:34:05;99445.72;;;17.01;100.00